Time;durP1;ratioP1;P1;durP2;ratioP2;P2;SDS_P1;SDS_P2;PMS_P1;PMS_P2;Temp;Humidity;BMP_temperature;BMP_pressure;BME280_temperature;BME280_humidity;BME280_pressure;Samples;Min_cycle;Max_cycle;Signal;HPM_P1;HPM_P2
2022/01/20 00:01:36;;;;;;;20.23;3.40;;;3.10;99.90;;;;;;6199035;23;20016;-96
2022/01/20 00:03:58;;;;;;;20.13;3.20;;;3.40;99.90;;;;;;6199164;23;20016;-96
2022/01/20 00:07:08;;;;;;;;;;;4.30;99.90;;;;;;6151596;23;20027;-96
2022/01/20 00:26:44;;;;;;;17.48;4.07;;;3.20;99.90;;;;;;6192328;23;20020;-96
2022/01/20 00:32:20;;;;;;;17.58;3.85;;;3.40;99.90;;;;;;6183277;23;20078;-96
2022/01/20 00:37:30;;;;;;;14.65;3.30;;;3.20;99.90;;;;;;6172984;23;20027;-96
2022/01/20 00:40:00;;;;;;;22.60;3.58;;;2.80;99.90;;;;;;6195329;23;20016;-96
2022/01/20 00:42:26;;;;;;;25.17;3.92;;;3.00;99.90;;;;;;6170158;23;20016;-96
2022/01/20 00:44:52;;;;;;;14.98;3.97;;;3.70;99.90;;;;;;6195182;23;20072;-96
2022/01/20 00:47:19;;;;;;;18.55;3.33;;;3.20;99.90;;;;;;6170247;23;20081;-96
2022/01/20 00:49:46;;;;;;;15.80;3.13;;;3.30;99.90;;;;;;6195123;23;20051;-96
2022/01/20 00:52:11;;;;;;;11.52;3.17;;;3.20;99.90;;;;;;6145983;23;20527;-96
2022/01/20 00:54:38;;;;;;;12.68;2.63;;;3.30;99.90;;;;;;6145644;23;20020;-96
2022/01/20 00:57:04;;;;;;;18.17;2.72;;;3.30;99.90;;;;;;6170359;23;20043;-96
2022/01/20 00:59:31;;;;;;;12.95;2.78;;;3.30;99.90;;;;;;6170901;23;20486;-96
2022/01/20 01:02:06;;;;;;;11.57;2.50;;;3.30;99.90;;;;;;6195356;23;20012;-96
2022/01/20 01:04:33;;;;;;;11.68;2.97;;;3.30;99.90;;;;;;6195321;23;20020;-96
2022/01/20 01:09:25;;;;;;;16.95;3.28;;;4.50;99.90;;;;;;6170590;23;20016;-96
2022/01/20 01:11:53;;;;;;;17.20;4.90;;;3.50;99.90;;;;;;6170314;23;20016;-96
2022/01/20 01:14:21;;;;;;;15.02;2.83;;;3.10;99.90;;;;;;6170851;23;20023;-96
2022/01/20 01:25:01;;;;;;;13.27;2.58;;;2.90;99.90;;;;;;6193316;23;20028;-96
2022/01/20 01:27:38;;;;;;;10.63;2.03;;;2.90;99.90;;;;;;6190199;23;20444;-96
2022/01/20 01:31:07;;;;;;;10.73;2.95;;;2.50;99.90;;;;;;6215042;23;20021;-96
2022/01/20 01:33:29;;;;;;;15.90;2.67;;;3.50;99.90;;;;;;6213462;23;20009;-95
2022/01/20 01:36:02;;;;;;;13.98;2.78;;;2.20;99.90;;;;;;6216127;23;20459;-96
2022/01/20 01:38:42;;;;;;;10.60;2.35;;;2.90;99.90;;;;;;6167090;23;20356;-96
2022/01/20 01:41:14;;;;;;;22.17;2.60;;;3.00;99.90;;;;;;6190603;23;20016;-95
2022/01/20 01:44:39;;;;;;;21.95;3.00;;;3.00;99.90;;;;;;6190881;23;20104;-95
2022/01/20 01:47:10;;;;;;;20.02;2.97;;;3.10;99.90;;;;;;6190822;23;20016;-95
2022/01/20 01:49:40;;;;;;;9.27;2.80;;;2.30;99.90;;;;;;6165322;23;20019;-96
2022/01/20 01:52:21;;;;;;;11.00;2.33;;;3.70;99.90;;;;;;6142599;23;20584;-95
2022/01/20 01:54:47;;;;;;;12.90;2.35;;;3.10;99.90;;;;;;6143135;23;20016;-96
2022/01/20 01:57:19;;;;;;;11.48;2.53;;;3.10;99.90;;;;;;6141077;23;20104;-96
2022/01/20 01:59:48;;;;;;;15.05;2.92;;;3.20;99.90;;;;;;6166261;23;20025;-96
2022/01/20 02:02:14;;;;;;;9.40;2.22;;;3.20;99.90;;;;;;6140692;23;20016;-96
2022/01/20 02:04:41;;;;;;;11.25;2.25;;;3.20;99.90;;;;;;6165587;23;20026;-96
2022/01/20 02:20:42;;;;;;;9.48;1.70;;;3.00;99.90;;;;;;6218397;23;20012;-96
2022/01/20 02:23:08;;;;;;;8.20;1.92;;;3.00;99.90;;;;;;6190156;23;20056;-96
2022/01/20 02:25:37;;;;;;;8.10;1.90;;;3.50;99.90;;;;;;6190469;23;20020;-96
2022/01/20 02:28:06;;;;;;;7.82;2.40;;;2.80;99.90;;;;;;6215027;23;20009;-96
2022/01/20 02:30:33;;;;;;;6.80;1.80;;;2.80;99.90;;;;;;6216820;23;20040;-96
2022/01/20 02:33:02;;;;;;;8.23;1.77;;;2.90;99.90;;;;;;6217351;23;20032;-96
2022/01/20 02:35:33;;;;;;;8.07;1.88;;;2.90;99.90;;;;;;6217888;23;20036;-96
2022/01/20 02:38:14;;;;;;;10.82;1.90;;;3.60;99.90;;;;;;6217933;23;20008;-95
2022/01/20 02:46:12;;;;;;;8.88;1.65;;;3.60;99.90;;;;;;6203199;23;20107;-96
2022/01/20 02:48:44;;;;;;;9.73;2.60;;;2.30;99.90;;;;;;6170319;23;20044;-96
2022/01/20 02:51:11;;;;;;;7.13;1.67;;;3.20;99.90;;;;;;6119971;23;20005;-96
2022/01/20 02:53:37;;;;;;;12.68;2.33;;;3.10;99.90;;;;;;6163158;23;20009;-96
2022/01/20 02:56:03;;;;;;;5.68;1.60;;;4.00;99.90;;;;;;6138743;23;20016;-96
2022/01/20 02:58:29;;;;;;;8.57;2.13;;;3.00;99.90;;;;;;6142712;23;20033;-96
2022/01/20 03:00:57;;;;;;;5.32;1.50;;;3.00;99.90;;;;;;6135619;23;20024;-96
2022/01/20 03:03:23;;;;;;;8.57;1.52;;;3.00;99.90;;;;;;6135510;23;20020;-96
2022/01/20 03:05:49;;;;;;;4.88;1.80;;;3.00;99.90;;;;;;6111264;23;20053;-96
2022/01/20 03:08:15;;;;;;;6.40;1.90;;;3.00;99.90;;;;;;6136184;23;20542;-96
2022/01/20 03:10:41;;;;;;;6.63;1.80;;;2.90;99.90;;;;;;6136463;23;20021;-96
2022/01/20 03:13:07;;;;;;;5.65;1.60;;;2.90;99.90;;;;;;6111418;23;20025;-96
2022/01/20 03:15:35;;;;;;;8.55;1.70;;;2.80;99.90;;;;;;6134630;23;20740;-96
2022/01/20 03:18:02;;;;;;;12.85;2.63;;;3.80;99.90;;;;;;6137671;23;20021;-96
2022/01/20 03:20:28;;;;;;;9.82;1.75;;;2.70;99.90;;;;;;6139393;23;20021;-96
2022/01/20 03:22:54;;;;;;;8.85;1.67;;;3.50;99.90;;;;;;6138217;23;20021;-96
2022/01/20 03:25:27;;;;;;;7.82;1.83;;;2.10;99.90;;;;;;6143415;23;20017;-96
2022/01/20 03:27:58;;;;;;;9.98;2.60;;;2.90;99.90;;;;;;6160600;23;20032;-95
2022/01/20 03:30:30;;;;;;;10.82;2.03;;;2.10;99.90;;;;;;6184236;23;20017;-96
2022/01/20 03:33:10;;;;;;;;;;;;;;;;;;;;;
2022/01/20 03:35:40;;;;;;;9.50;2.40;;;2.50;99.90;;;;;;6141547;23;20009;-96
2022/01/20 03:38:06;;;;;;;12.30;2.13;;;2.50;99.90;;;;;;6135674;23;20039;-96
2022/01/20 03:40:32;;;;;;;11.60;2.80;;;3.90;99.90;;;;;;6110394;23;20009;-96
2022/01/20 03:42:58;;;;;;;9.52;2.35;;;2.50;99.90;;;;;;6098742;23;20076;-96
2022/01/20 03:45:27;;;;;;;20.27;3.17;;;3.70;99.90;;;;;;6164794;23;20059;-96
2022/01/20 03:47:58;;;;;;;20.83;2.60;;;2.60;99.90;;;;;;6164629;23;20099;-96
2022/01/20 03:53:09;;;;;;;8.98;2.50;;;2.50;99.90;;;;;;6142465;23;20021;-96
2022/01/20 03:55:35;;;;;;;16.17;2.90;;;3.50;99.90;;;;;;6162913;23;20013;-96
2022/01/20 03:58:01;;;;;;;15.95;3.45;;;3.30;99.90;;;;;;6112284;23;20013;-96
2022/01/20 04:00:27;;;;;;;20.85;3.95;;;3.00;99.90;;;;;;6112141;23;20460;-96
2022/01/20 04:02:53;;;;;;;20.83;3.45;;;2.60;99.90;;;;;;6112626;23;20021;-96
2022/01/20 04:05:18;;;;;;;19.60;3.30;;;3.70;99.90;;;;;;6136971;23;20021;-96
2022/01/20 04:07:44;;;;;;;21.40;4.00;;;3.90;99.90;;;;;;6166330;23;20016;-95
2022/01/20 04:10:10;;;;;;;15.98;3.25;;;2.70;99.90;;;;;;6141701;23;20012;-95
2022/01/20 04:12:36;;;;;;;11.05;2.88;;;2.80;99.90;;;;;;6166216;23;20039;-96
2022/01/20 04:15:07;;;;;;;25.52;3.80;;;2.60;99.90;;;;;;6166341;23;20420;-96
2022/01/20 04:17:39;;;;;;;15.13;3.70;;;3.30;99.90;;;;;;6192145;23;20019;-96
2022/01/20 04:20:05;;;;;;;18.05;3.15;;;2.60;99.90;;;;;;6191331;23;20016;-96
2022/01/20 04:22:31;;;;;;;17.58;3.33;;;2.50;99.90;;;;;;6143281;23;20056;-96
2022/01/20 04:24:57;;;;;;;15.32;3.60;;;3.10;99.90;;;;;;6141792;23;20102;-96
2022/01/20 04:27:23;;;;;;;13.40;3.85;;;2.50;99.90;;;;;;6190561;23;20511;-96
2022/01/20 04:29:49;;;;;;;12.95;3.35;;;2.50;99.90;;;;;;6165693;23;20440;-96
2022/01/20 04:32:15;;;;;;;18.65;3.72;;;3.00;99.90;;;;;;6141845;23;20075;-96
2022/01/20 04:34:41;;;;;;;29.85;4.30;;;2.50;99.90;;;;;;6165462;23;20021;-95
2022/01/20 04:37:08;;;;;;;20.40;3.35;;;3.70;99.90;;;;;;6141597;23;20399;-96
2022/01/20 04:39:37;;;;;;;17.98;3.17;;;2.90;99.90;;;;;;6142185;23;20095;-95
2022/01/20 04:42:03;;;;;;;12.80;2.95;;;2.40;99.90;;;;;;6166389;23;20357;-96
2022/01/20 04:44:46;;;;;;;16.30;3.42;;;2.30;99.90;;;;;;6190458;23;20012;-96
2022/01/20 04:47:21;;;;;;;10.23;3.40;;;2.20;99.90;;;;;;6148241;23;20013;-95
2022/01/20 04:58:00;;;;;;;9.55;2.40;;;2.20;99.90;;;;;;6199203;23;20017;-96
2022/01/20 05:00:27;;;;;;;13.15;3.25;;;2.10;99.90;;;;;;6193562;23;20023;-96
2022/01/20 05:02:53;;;;;;;9.77;2.90;;;2.10;99.90;;;;;;6139975;23;20060;-96
2022/01/20 05:05:18;;;;;;;12.18;3.25;;;2.10;99.90;;;;;;6141048;23;20104;-94
2022/01/20 05:07:45;;;;;;;13.55;3.47;;;2.10;99.90;;;;;;6165975;23;20016;-95
2022/01/20 05:10:12;;;;;;;13.07;3.38;;;2.10;99.90;;;;;;6167390;23;20020;-95
2022/01/20 05:13:06;;;;;;;8.82;2.60;;;2.10;99.90;;;;;;6190444;23;20024;-95
2022/01/20 05:15:25;;;;;;;11.15;2.17;;;3.40;99.90;;;;;;6193441;23;20027;-95
2022/01/20 05:17:52;;;;;;;12.43;2.97;;;2.10;99.90;;;;;;6165832;23;20048;-95
2022/01/20 05:20:19;;;;;;;10.25;2.60;;;3.10;99.90;;;;;;6190263;23;20020;-95
2022/01/20 05:22:44;;;;;;;13.05;2.70;;;2.00;99.90;;;;;;6165684;23;20016;-95
2022/01/20 05:25:11;;;;;;;14.20;3.60;;;1.90;99.90;;;;;;6140895;23;20020;-93
2022/01/20 05:27:37;;;;;;;10.05;2.88;;;1.80;99.90;;;;;;6165814;23;20460;-95
2022/01/20 05:30:03;;;;;;;10.07;2.58;;;0.80;99.90;;;;;;6140770;23;20012;-95
2022/01/20 05:32:29;;;;;;;15.80;2.75;;;1.60;99.90;;;;;;6165217;23;20052;-95
2022/01/20 05:34:55;;;;;;;9.30;2.33;;;2.10;99.90;;;;;;6165603;23;20020;-95
2022/01/20 05:37:21;;;;;;;16.48;2.55;;;2.50;99.90;;;;;;6141004;23;20070;-95
2022/01/20 05:39:46;;;;;;;12.55;2.13;;;2.10;99.90;;;;;;6165328;23;20090;-96
2022/01/20 05:42:12;;;;;;;12.05;2.13;;;2.90;99.90;;;;;;6142046;23;20028;-95
2022/01/20 05:44:38;;;;;;;18.35;3.33;;;2.80;99.90;;;;;;6166959;23;20095;-95
2022/01/20 05:47:11;;;;;;;17.83;2.95;;;2.50;99.90;;;;;;6165341;23;20623;-95
2022/01/20 05:49:37;;;;;;;16.77;2.90;;;1.60;99.90;;;;;;6168363;23;20016;-95
2022/01/20 05:52:04;;;;;;;8.98;2.22;;;1.60;99.90;;;;;;6167680;23;20083;-95
2022/01/20 05:54:30;;;;;;;10.07;2.70;;;1.70;99.90;;;;;;6167791;23;20056;-95
2022/01/20 05:56:56;;;;;;;9.88;2.55;;;1.80;99.90;;;;;;6141423;23;20020;-95
2022/01/20 05:59:22;;;;;;;11.60;2.65;;;1.80;99.90;;;;;;6189790;23;20048;-95
2022/01/20 06:01:55;;;;;;;16.70;2.80;;;3.20;99.90;;;;;;6165100;23;20024;-95
2022/01/20 06:04:21;;;;;;;8.77;2.05;;;1.80;99.90;;;;;;6192620;23;20017;-96
2022/01/20 06:06:46;;;;;;;12.57;2.35;;;2.70;99.90;;;;;;6166969;23;20013;-94
2022/01/20 06:09:12;;;;;;;7.22;1.67;;;2.70;99.90;;;;;;6140091;23;20020;-95
2022/01/20 06:11:38;;;;;;;7.53;2.00;;;1.70;99.90;;;;;;6140376;23;20021;-96
2022/01/20 06:14:05;;;;;;;10.48;2.00;;;1.70;99.90;;;;;;6139327;23;20326;-96
2022/01/20 06:16:31;;;;;;;10.25;2.72;;;1.60;99.90;;;;;;6192170;23;20099;-95
2022/01/20 06:18:57;;;;;;;8.80;1.80;;;2.90;99.90;;;;;;6166790;23;20028;-96
2022/01/20 06:21:23;;;;;;;10.18;2.00;;;0.30;99.90;;;;;;6191296;23;20016;-95
2022/01/20 06:23:50;;;;;;;13.13;2.30;;;1.50;99.90;;;;;;6140326;23;20344;-96
2022/01/20 06:26:16;;;;;;;8.07;2.30;;;1.40;99.90;;;;;;6165136;23;20016;-95
2022/01/20 06:28:42;;;;;;;9.52;2.40;;;1.30;99.90;;;;;;6164690;23;20052;-95
2022/01/20 06:31:09;;;;;;;11.00;2.17;;;2.20;99.90;;;;;;6189804;23;20587;-95
2022/01/20 06:33:35;;;;;;;11.07;2.00;;;1.80;99.90;;;;;;6190139;23;20017;-94
2022/01/20 06:36:01;;;;;;;7.70;2.30;;;1.30;99.90;;;;;;6140354;23;20411;-95
2022/01/20 06:38:27;;;;;;;10.32;2.55;;;1.20;99.90;;;;;;6164956;23;20013;-95
2022/01/20 06:40:53;;;;;;;4.60;1.90;;;1.20;99.90;;;;;;6164627;23;20044;-94
2022/01/20 06:43:19;;;;;;;10.05;2.70;;;1.20;99.90;;;;;;6164846;23;20052;-95
2022/01/20 06:45:45;;;;;;;7.50;2.10;;;1.30;99.90;;;;;;6164907;23;20014;-94
2022/01/20 06:48:15;;;;;;;10.98;2.75;;;1.30;99.90;;;;;;6165043;23;20518;-95
2022/01/20 06:50:48;;;;;;;10.45;2.17;;;2.40;99.90;;;;;;6141598;23;20351;-95
2022/01/20 06:53:22;;;;;;;9.38;2.42;;;1.80;99.90;;;;;;6189935;23;20063;-95
2022/01/20 06:55:54;;;;;;;12.10;2.60;;;0.50;99.90;;;;;;6169300;23;20020;-95
2022/01/20 06:58:38;;;;;;;;;;;;;;;;;;;;;
2022/01/20 07:01:16;;;;;;;11.95;2.58;;;2.90;99.90;;;;;;6194805;23;20020;-95
2022/01/20 07:03:56;;;;;;;10.40;2.92;;;1.40;99.90;;;;;;6148195;23;20059;-95
2022/01/20 07:06:27;;;;;;;12.80;2.67;;;3.10;99.90;;;;;;6167332;23;20019;-95
2022/01/20 07:08:58;;;;;;;13.38;2.80;;;1.40;99.90;;;;;;6170570;23;20016;-95
2022/01/20 07:11:24;;;;;;;10.73;2.85;;;1.40;99.90;;;;;;6166576;23;20048;-94
2022/01/20 07:13:50;;;;;;;14.18;2.40;;;2.80;99.90;;;;;;6191919;23;20052;-95
2022/01/20 07:16:32;;;;;;;10.90;2.90;;;1.30;99.90;;;;;;6166756;23;20016;-95
2022/01/20 07:18:58;;;;;;;12.45;3.28;;;2.30;99.90;;;;;;6169716;23;20025;-95
2022/01/20 07:21:24;;;;;;;15.25;3.85;;;-0.30;99.90;;;;;;6166388;23;20092;-95
2022/01/20 07:23:50;;;;;;;10.23;3.10;;;1.20;99.90;;;;;;6167175;23;20009;-95
2022/01/20 07:26:17;;;;;;;12.98;2.90;;;2.20;99.90;;;;;;6167712;23;20052;-94
2022/01/20 07:28:43;;;;;;;8.85;2.92;;;1.00;99.90;;;;;;6166792;23;20021;-95
2022/01/20 07:31:09;;;;;;;12.68;2.83;;;1.70;99.90;;;;;;6142594;23;20016;-94
2022/01/20 07:33:36;;;;;;;11.43;2.22;;;1.00;99.90;;;;;;6142789;23;20017;-94
2022/01/20 07:36:03;;;;;;;7.47;2.40;;;1.00;99.90;;;;;;6191265;23;20083;-94
2022/01/20 07:38:32;;;;;;;12.65;2.85;;;1.00;99.90;;;;;;6166385;23;20415;-94
2022/01/20 07:41:02;;;;;;;14.63;2.13;;;1.00;99.90;;;;;;6158916;23;20024;-94
2022/01/20 07:43:35;;;;;;;9.02;2.42;;;0.90;99.90;;;;;;6163127;23;20087;-95
2022/01/20 07:46:11;;;;;;;8.25;2.40;;;-0.30;99.90;;;;;;6139103;23;20020;-95
2022/01/20 07:48:49;;;;;;;14.75;2.60;;;2.30;99.90;;;;;;6168692;23;20024;-95
2022/01/20 07:51:19;;;;;;;9.13;2.67;;;1.00;99.90;;;;;;6187056;23;20027;-94
2022/01/20 07:53:46;;;;;;;24.17;3.20;;;0.80;99.90;;;;;;6187509;23;20044;-94
2022/01/20 07:56:12;;;;;;;14.02;2.92;;;0.70;99.90;;;;;;6160042;23;20016;-93
2022/01/20 07:58:40;;;;;;;14.70;2.33;;;0.90;99.90;;;;;;6185705;23;20353;-94
2022/01/20 08:01:13;;;;;;;9.20;2.83;;;1.00;99.90;;;;;;6164563;23;20607;-95
2022/01/20 08:03:45;;;;;;;13.13;2.33;;;1.00;99.90;;;;;;6168381;23;20027;-94
2022/01/20 08:06:14;;;;;;;11.20;2.58;;;1.10;99.90;;;;;;6165466;23;20016;-95
2022/01/20 08:08:40;;;;;;;20.00;3.03;;;1.10;99.90;;;;;;6139047;23;20020;-94
2022/01/20 08:11:06;;;;;;;11.90;2.55;;;1.10;99.90;;;;;;6188082;23;20024;-95
2022/01/20 08:13:32;;;;;;;12.85;2.80;;;1.20;99.90;;;;;;6150242;23;20004;-95
2022/01/20 08:15:58;;;;;;;13.60;2.88;;;0.60;99.90;;;;;;6210664;23;20020;-94
2022/01/20 08:18:24;;;;;;;10.65;3.15;;;1.10;99.90;;;;;;6184459;23;20021;-95
2022/01/20 08:20:50;;;;;;;12.85;2.85;;;1.10;99.90;;;;;;6210648;23;20051;-94
2022/01/20 08:23:16;;;;;;;10.05;2.58;;;1.10;99.90;;;;;;6212044;23;20024;-94
2022/01/20 08:25:42;;;;;;;15.98;3.42;;;1.20;99.90;;;;;;6162192;23;20025;-93
2022/01/20 08:28:08;;;;;;;12.55;2.67;;;1.20;99.90;;;;;;6156675;23;20024;-95
2022/01/20 08:30:34;;;;;;;18.85;3.55;;;1.40;99.90;;;;;;6210625;23;20047;-94
2022/01/20 08:33:00;;;;;;;11.45;2.75;;;1.40;99.90;;;;;;6178120;23;20000;-94
2022/01/20 08:35:31;;;;;;;11.32;2.03;;;2.40;99.90;;;;;;6175726;23;20040;-95
2022/01/20 08:37:59;;;;;;;8.13;2.50;;;1.40;99.90;;;;;;6165328;23;20020;-94
2022/01/20 08:40:26;;;;;;;10.35;2.22;;;1.40;99.90;;;;;;6170617;23;20020;-96
2022/01/20 08:42:53;;;;;;;6.85;1.95;;;1.30;99.90;;;;;;6192537;23;20076;-95
2022/01/20 08:45:22;;;;;;;13.20;2.72;;;1.30;99.90;;;;;;6143838;23;20040;-94
2022/01/20 08:47:52;;;;;;;5.80;2.13;;;2.60;99.90;;;;;;6192519;23;20056;-94
2022/01/20 08:50:18;;;;;;;17.73;2.95;;;1.50;99.90;;;;;;6193795;23;20697;-95
2022/01/20 08:52:48;;;;;;;9.85;2.65;;;1.50;99.90;;;;;;6203702;23;20017;-96
2022/01/20 08:55:26;;;;;;;13.85;2.75;;;3.40;99.90;;;;;;6182660;23;20075;-96
2022/01/20 08:58:01;;;;;;;11.75;3.20;;;1.90;99.90;;;;;;6175829;23;20531;-96
2022/01/20 09:00:36;;;;;;;6.38;2.65;;;1.80;99.90;;;;;;6171288;23;20020;-96
2022/01/20 09:03:24;;;;;;;13.77;2.22;;;1.40;99.90;;;;;;6214885;23;20025;-86
2022/01/20 09:05:53;;;;;;;5.88;2.67;;;1.70;99.90;;;;;;6128455;23;20047;-86
2022/01/20 09:08:23;;;;;;;11.30;2.55;;;2.20;99.90;;;;;;6128846;23;20740;-85
2022/01/20 09:11:23;;;;;;;16.15;3.08;;;2.80;99.90;;;;;;6132377;23;20029;-87
2022/01/20 09:16:43;;;;;;;10.95;3.20;;;4.20;99.90;;;;;;6179067;23;20044;-87
2022/01/20 09:19:21;;;;;;;14.20;4.22;;;5.00;99.90;;;;;;6186070;23;20013;-85
2022/01/20 09:21:53;;;;;;;13.07;2.45;;;5.40;99.90;;;;;;6186533;23;20061;-85
2022/01/20 09:24:19;;;;;;;13.88;3.05;;;5.90;99.90;;;;;;6159676;23;20009;-86
2022/01/20 09:26:45;;;;;;;13.88;3.10;;;6.10;99.90;;;;;;6183071;23;20063;-86
2022/01/20 09:29:13;;;;;;;7.75;3.50;;;6.60;99.90;;;;;;6132750;23;20036;-86
2022/01/20 09:35:42;;;;;;;9.50;2.65;;;6.90;99.90;;;;;;6196795;23;20008;-76
2022/01/20 09:38:56;;;;;;;9.25;2.40;;;5.80;99.90;;;;;;6130461;23;20408;-76
2022/01/20 09:41:22;;;;;;;3.95;1.90;;;4.70;99.90;;;;;;6153921;23;20025;-76
2022/01/20 09:43:54;;;;;;;8.05;1.85;;;4.00;99.90;;;;;;6130606;23;20021;-76
2022/01/20 09:50:31;;;;;;;7.07;2.20;;;3.20;99.90;;;;;;6177902;23;20012;-76
2022/01/20 09:53:19;;;;;;;9.05;2.67;;;2.90;99.90;;;;;;6152622;23;20017;-75
2022/01/20 09:59:56;;;;;;;8.68;1.95;;;2.90;99.90;;;;;;6042797;23;20032;-75
2022/01/20 10:02:23;;;;;;;8.68;1.75;;;3.30;99.90;;;;;;6132525;23;20125;-75
2022/01/20 10:04:49;;;;;;;6.72;1.83;;;3.30;99.90;;;;;;6105375;23;20488;-75
2022/01/20 10:07:15;;;;;;;9.60;2.13;;;3.10;99.90;;;;;;6158054;23;20017;-76
2022/01/20 10:09:51;;;;;;;6.40;1.77;;;3.30;99.90;;;;;;6157520;23;20052;-76
2022/01/20 10:12:19;;;;;;;6.65;1.83;;;2.90;99.90;;;;;;6156886;23;20021;-75
2022/01/20 10:15:08;;;;;;;7.13;2.22;;;2.80;99.90;;;;;;6157162;23;20461;-75
2022/01/20 10:17:45;;;;;;;8.85;1.95;;;2.80;99.90;;;;;;6156036;23;20472;-76
2022/01/20 10:20:18;;;;;;;;;;;2.70;99.90;;;;;;6182597;23;20021;-75
2022/01/20 10:22:56;;;;;;;9.07;2.35;;;2.70;99.90;;;;;;6157570;23;19923;-75
2022/01/20 10:25:25;;;;;;;5.53;2.00;;;2.60;99.90;;;;;;6157474;23;20013;-75
2022/01/20 10:27:57;;;;;;;8.70;2.30;;;2.70;99.90;;;;;;6181293;23;20049;-75
2022/01/20 10:30:29;;;;;;;12.57;2.72;;;3.10;99.90;;;;;;6182058;23;20017;-75
2022/01/20 10:32:57;;;;;;;14.00;3.30;;;3.30;99.90;;;;;;6181986;23;20028;-75
2022/01/20 11:20:43;;;;;;;10.45;2.50;;;3.80;99.90;;;;;;6235110;22;20024;-83
2022/01/20 11:23:09;;;;;;;12.55;3.75;;;3.70;99.90;;;;;;6239446;23;20024;-83
2022/01/20 11:25:39;;;;;;;13.05;2.33;;;3.70;99.90;;;;;;6214862;23;20139;-83
2022/01/20 11:28:08;;;;;;;12.43;2.60;;;3.50;99.90;;;;;;6241290;23;20022;-82
2022/01/20 11:30:38;;;;;;;10.68;2.40;;;3.40;99.90;;;;;;6242757;23;20040;-83
2022/01/20 11:33:10;;;;;;;7.07;1.95;;;3.50;99.90;;;;;;6242599;23;20414;-83
2022/01/20 11:35:56;;;;;;;5.35;2.45;;;3.80;99.90;;;;;;6243047;23;20415;-81
2022/01/20 11:38:41;;;;;;;11.43;2.20;;;3.70;99.90;;;;;;6242235;23;20459;-82
2022/01/20 11:41:07;;;;;;;8.95;2.40;;;3.70;99.90;;;;;;6244591;23;20099;-82
2022/01/20 11:43:37;;;;;;;12.93;2.33;;;3.70;99.90;;;;;;6193000;23;20048;-83
2022/01/20 11:46:13;;;;;;;13.02;2.60;;;3.80;99.90;;;;;;6218912;23;20028;-83
2022/01/20 11:49:06;;;;;;;11.82;2.85;;;3.80;99.90;;;;;;6193414;23;20488;-84
2022/01/20 11:51:40;;;;;;;;;;;3.90;99.90;;;;;;6219864;23;20095;-83
2022/01/20 11:54:06;;;;;;;13.23;3.08;;;4.00;99.90;;;;;;6219765;23;19915;-84
2022/01/20 11:56:41;;;;;;;12.43;2.63;;;4.00;99.90;;;;;;6243852;23;20024;-84
2022/01/20 11:59:10;;;;;;;10.20;2.15;;;4.20;99.90;;;;;;6217609;23;20020;-82
2022/01/20 12:01:48;;;;;;;12.35;2.40;;;4.90;99.90;;;;;;6218248;23;20343;-82
2022/01/20 12:04:15;;;;;;;7.22;2.40;;;3.80;99.90;;;;;;6218586;23;20023;-81
2022/01/20 12:06:44;;;;;;;14.63;2.90;;;3.00;99.90;;;;;;6243588;23;20011;-82
2022/01/20 12:09:11;;;;;;;13.55;2.80;;;2.90;99.90;;;;;;6218635;23;20012;-82
2022/01/20 12:11:45;;;;;;;13.35;2.53;;;2.90;99.90;;;;;;6212350;23;20470;-82
2022/01/20 12:14:12;;;;;;;12.55;2.40;;;3.00;99.90;;;;;;6215678;23;20020;-82
2022/01/20 12:16:40;;;;;;;18.50;2.95;;;3.50;99.90;;;;;;6240418;23;20020;-83
2022/01/20 12:19:09;;;;;;;10.98;2.33;;;3.20;99.90;;;;;;6191488;23;20016;-82
2022/01/20 12:21:36;;;;;;;11.93;2.80;;;3.40;99.90;;;;;;6188257;23;20021;-82
2022/01/20 12:24:02;;;;;;;9.50;2.38;;;3.30;99.90;;;;;;6210525;23;20016;-82
2022/01/20 12:26:35;;;;;;;9.57;2.10;;;3.10;99.90;;;;;;6161176;23;20115;-81
2022/01/20 12:29:05;;;;;;;5.15;1.50;;;3.00;99.90;;;;;;6185798;23;20008;-81
2022/01/20 12:31:32;;;;;;;8.25;1.55;;;3.80;99.90;;;;;;6210604;23;20016;-82
2022/01/20 12:33:58;;;;;;;7.90;1.48;;;2.80;99.90;;;;;;6211274;23;20336;-82
2022/01/20 12:36:24;;;;;;;4.88;1.73;;;2.80;99.90;;;;;;6210234;23;20020;-82
2022/01/20 12:38:52;;;;;;;8.90;2.13;;;2.70;99.90;;;;;;6209778;23;20396;-83
2022/01/20 12:46:59;;;;;;;16.05;2.65;;;3.00;99.90;;;;;;6212121;23;20020;-78
2022/01/20 12:49:28;;;;;;;7.43;1.70;;;3.30;99.90;;;;;;6163037;23;20045;-78
2022/01/20 12:51:54;;;;;;;11.98;1.95;;;3.70;99.90;;;;;;6160436;23;20072;-78
2022/01/20 12:54:26;;;;;;;7.97;1.75;;;3.40;99.90;;;;;;6161048;23;20028;-78
2022/01/20 12:56:53;;;;;;;5.80;2.17;;;3.50;99.90;;;;;;6160213;23;20032;-78
2022/01/20 12:59:25;;;;;;;5.55;2.05;;;3.90;99.90;;;;;;6135714;23;20100;-78
2022/01/20 13:01:59;;;;;;;7.38;2.53;;;3.70;99.90;;;;;;6187091;23;20020;-78
2022/01/20 13:04:27;;;;;;;10.48;2.92;;;3.80;99.90;;;;;;6187289;23;20012;-78
2022/01/20 13:07:00;;;;;;;8.00;2.08;;;3.90;99.90;;;;;;6137323;23;20017;-78
2022/01/20 13:09:46;;;;;;;7.57;2.38;;;3.90;99.90;;;;;;6186546;23;20017;-78
2022/01/20 13:12:14;;;;;;;15.00;2.58;;;3.90;99.90;;;;;;6162435;23;20023;-78
2022/01/20 13:14:46;;;;;;;6.47;2.00;;;3.80;99.90;;;;;;6162098;23;20024;-78
2022/01/20 13:17:22;;;;;;;7.13;3.38;;;3.80;99.90;;;;;;6163819;23;20024;-78
2022/01/20 13:19:49;;;;;;;9.80;2.70;;;3.90;99.90;;;;;;6188234;23;20016;-78
2022/01/20 13:22:41;;;;;;;9.88;2.13;;;3.90;99.90;;;;;;6163548;23;20031;-78
2022/01/20 13:25:10;;;;;;;10.38;3.00;;;4.00;99.90;;;;;;6188245;23;20522;-77
2022/01/20 13:31:44;;;;;;;10.68;2.25;;;4.10;99.90;;;;;;6218339;23;20063;-81
2022/01/20 13:34:20;;;;;;;13.20;2.80;;;4.30;99.90;;;;;;6167932;23;20083;-77
2022/01/20 13:40:27;;;;;;;8.38;2.65;;;4.10;99.90;;;;;;6214256;23;20057;-78
2022/01/20 13:45:43;;;;;;;21.50;2.80;;;3.90;99.90;;;;;;6166287;23;20348;-78
2022/01/20 13:48:10;;;;;;;18.42;3.22;;;3.80;99.90;;;;;;6162008;23;20539;-78
2022/01/20 13:50:42;;;;;;;13.02;2.92;;;3.90;99.90;;;;;;6138241;23;20021;-78
2022/01/20 13:53:17;;;;;;;11.02;3.20;;;4.00;99.90;;;;;;6162153;23;20420;-78
2022/01/20 13:55:45;;;;;;;11.40;2.88;;;3.90;99.90;;;;;;6161622;23;20021;-78
2022/01/20 13:58:43;;;;;;;10.27;2.53;;;3.60;99.90;;;;;;6161832;23;20519;-78
2022/01/20 14:01:09;;;;;;;10.65;2.28;;;3.40;99.90;;;;;;6113165;23;20017;-77
2022/01/20 14:03:39;;;;;;;11.63;2.72;;;3.30;99.90;;;;;;6161649;23;20016;-78
2022/01/20 14:06:06;;;;;;;10.15;2.83;;;3.20;99.90;;;;;;6185965;23;20021;-77
2022/01/20 14:08:36;;;;;;;7.55;1.92;;;3.20;99.90;;;;;;6162862;23;20116;-77
2022/01/20 14:11:04;;;;;;;7.47;1.63;;;3.20;99.90;;;;;;6161876;23;20018;-77
2022/01/20 14:13:30;;;;;;;8.73;1.90;;;3.30;99.90;;;;;;6186220;23;20047;-77
2022/01/20 14:15:57;;;;;;;9.88;2.10;;;3.50;99.90;;;;;;6136706;23;20016;-77
2022/01/20 14:18:30;;;;;;;9.68;2.53;;;3.50;99.90;;;;;;6186250;23;20025;-77
2022/01/20 14:20:55;;;;;;;10.52;2.45;;;3.60;99.90;;;;;;6137538;23;20539;-77
2022/01/20 14:23:21;;;;;;;6.70;2.17;;;3.30;99.90;;;;;;6112701;23;20114;-77
2022/01/20 14:25:48;;;;;;;10.40;2.20;;;3.20;99.90;;;;;;6162011;23;20021;-77
2022/01/20 14:28:14;;;;;;;8.40;1.77;;;3.10;99.90;;;;;;6186661;23;20044;-77
2022/01/20 14:30:42;;;;;;;7.20;1.98;;;3.00;99.90;;;;;;6137474;23;20039;-77
2022/01/20 14:33:08;;;;;;;8.15;1.98;;;2.90;99.90;;;;;;6161861;23;20074;-77
2022/01/20 14:35:34;;;;;;;5.70;1.80;;;2.80;99.90;;;;;;6162874;23;20082;-77
2022/01/20 14:38:00;;;;;;;4.68;1.77;;;2.80;99.90;;;;;;6162873;23;20498;-77
2022/01/20 14:40:55;;;;;;;7.93;2.42;;;2.80;99.90;;;;;;6161942;23;20067;-78
2022/01/20 14:43:22;;;;;;;6.80;1.88;;;2.90;99.90;;;;;;6184747;23;20012;-77
2022/01/20 14:45:49;;;;;;;4.97;1.98;;;2.90;99.90;;;;;;6160212;23;20452;-77
2022/01/20 14:48:17;;;;;;;10.77;2.30;;;2.90;99.90;;;;;;6160211;23;20108;-77
2022/01/20 14:50:43;;;;;;;6.30;2.13;;;2.90;99.90;;;;;;6184441;23;20025;-77
2022/01/20 14:53:09;;;;;;;6.18;2.30;;;2.80;99.90;;;;;;6111745;23;20019;-77
2022/01/20 14:55:35;;;;;;;16.02;2.70;;;2.90;99.90;;;;;;6159958;23;20017;-77
2022/01/20 14:58:01;;;;;;;12.00;2.50;;;2.80;99.90;;;;;;6135670;23;20048;-77
2022/01/20 15:00:27;;;;;;;10.63;2.53;;;2.80;99.90;;;;;;6184652;23;20070;-77
2022/01/20 15:02:52;;;;;;;8.52;2.20;;;2.80;99.90;;;;;;6184958;23;20028;-77
2022/01/20 15:05:25;;;;;;;12.05;2.88;;;2.70;99.90;;;;;;6135473;23;20012;-77
2022/01/20 15:07:52;;;;;;;17.65;4.00;;;2.70;99.90;;;;;;6135634;23;20024;-77
2022/01/20 15:10:18;;;;;;;11.27;2.47;;;2.60;99.90;;;;;;6135223;23;20017;-77
2022/01/20 15:12:45;;;;;;;13.18;2.42;;;2.60;99.90;;;;;;6136047;23;20146;-77
2022/01/20 15:15:11;;;;;;;8.48;2.63;;;2.60;99.90;;;;;;6186031;23;20021;-77
2022/01/20 15:17:38;;;;;;;11.25;2.67;;;2.60;99.90;;;;;;6162086;23;20451;-77
2022/01/20 15:20:05;;;;;;;11.07;2.53;;;2.70;99.90;;;;;;6161642;23;20024;-77
2022/01/20 15:22:31;;;;;;;16.23;3.13;;;2.60;99.90;;;;;;6136879;23;20021;-77
2022/01/20 15:24:57;;;;;;;8.65;2.25;;;2.60;99.90;;;;;;6188337;23;20016;-77
2022/01/20 15:27:23;;;;;;;12.88;2.80;;;2.50;99.90;;;;;;6164429;23;20024;-77